createdAt,value
2022-09-20T00:01:50.777Z,7.00
2022-09-20T00:04:18.331Z,7.28
2022-09-20T00:06:45.894Z,5.65
2022-09-20T00:09:13.429Z,6.07
2022-09-20T00:11:41.016Z,5.82
2022-09-20T00:14:09.296Z,9.15
2022-09-20T00:16:40.789Z,8.00
2022-09-20T00:19:09.641Z,7.88
2022-09-20T00:21:37.734Z,5.78
2022-09-20T00:24:06.167Z,6.15
2022-09-20T00:26:34.199Z,7.18
2022-09-20T00:29:01.813Z,6.07
2022-09-20T00:31:29.482Z,6.65
2022-09-20T00:34:16.971Z,6.07
2022-09-20T00:36:45.296Z,6.53
2022-09-20T00:39:14.871Z,6.80
2022-09-20T00:41:43.016Z,4.93
2022-09-20T00:44:42.922Z,6.88
2022-09-20T00:47:16.955Z,5.75
2022-09-20T00:49:46.503Z,7.10
2022-09-20T00:52:14.356Z,7.55
2022-09-20T00:54:42.251Z,5.72
2022-09-20T00:57:09.791Z,7.40
2022-09-20T00:59:41.200Z,7.38
2022-09-20T01:02:13.264Z,5.70
2022-09-20T01:07:13.435Z,5.50
2022-09-20T01:09:41.052Z,4.55
2022-09-20T01:12:14.922Z,4.93
2022-09-20T01:14:45.081Z,8.65
2022-09-20T01:17:14.767Z,6.78
2022-09-20T01:19:54.872Z,7.95
2022-09-20T01:22:27.710Z,6.63
2022-09-20T01:25:03.658Z,4.65
2022-09-20T01:27:51.684Z,7.90
2022-09-20T01:30:21.085Z,5.90
2022-09-20T01:32:59.758Z,5.07
2022-09-20T01:35:30.061Z,6.65
2022-09-20T01:38:13.151Z,5.38
2022-09-20T01:40:49.486Z,5.47
2022-09-20T01:43:27.122Z,6.63
2022-09-20T01:45:54.879Z,6.90
2022-09-20T01:48:30.038Z,7.28
2022-09-20T01:51:21.384Z,5.82
2022-09-20T01:54:21.801Z,6.70
2022-09-20T01:57:32.708Z,5.28
2022-09-20T02:00:17.564Z,6.78
2022-09-20T02:03:36.576Z,5.93
2022-09-20T02:06:19.217Z,7.18
2022-09-20T02:09:11.686Z,4.38
2022-09-20T02:11:51.072Z,5.07
2022-09-20T02:14:33.221Z,8.35
2022-09-20T02:19:52.743Z,6.72
2022-09-20T02:22:49.801Z,4.35
2022-09-20T02:25:56.604Z,5.90
2022-09-20T02:28:33.115Z,7.00
2022-09-20T02:31:13.754Z,6.85
2022-09-20T02:33:58.038Z,7.70
2022-09-20T02:36:37.298Z,6.55
2022-09-20T02:39:11.840Z,4.47
2022-09-20T02:41:56.517Z,6.55
2022-09-20T02:44:44.874Z,6.50
2022-09-20T02:47:22.472Z,5.82
2022-09-20T02:50:09.963Z,6.53
2022-09-20T02:52:45.079Z,7.53
2022-09-20T02:55:18.782Z,9.13
2022-09-20T02:57:53.960Z,6.35
2022-09-20T03:00:25.153Z,5.43
2022-09-20T03:03:07.275Z,5.63
2022-09-20T03:05:50.726Z,6.25
2022-09-20T03:08:32.975Z,6.25
2022-09-20T03:11:07.410Z,5.22
2022-09-20T03:13:55.423Z,5.90
2022-09-20T03:16:32.993Z,4.72
2022-09-20T03:19:14.334Z,7.32
2022-09-20T03:21:53.608Z,5.20
2022-09-20T03:24:35.990Z,5.80
2022-09-20T03:27:09.489Z,6.50
2022-09-20T03:29:49.957Z,6.63
2022-09-20T03:32:33.224Z,5.88
2022-09-20T03:35:14.140Z,6.38
2022-09-20T03:38:03.075Z,5.30
2022-09-20T03:40:51.527Z,5.45
2022-09-20T03:43:35.344Z,9.18
2022-09-20T03:46:16.896Z,7.80
2022-09-20T03:49:06.531Z,5.00
2022-09-20T03:51:45.987Z,7.07
2022-09-20T03:54:35.727Z,4.57
2022-09-20T03:57:41.796Z,4.07
2022-09-20T04:00:21.820Z,7.07
2022-09-20T04:03:20.032Z,5.45
2022-09-20T04:06:00.295Z,6.28
2022-09-20T04:08:51.475Z,6.10
2022-09-20T04:11:26.988Z,4.97
2022-09-20T04:14:00.150Z,5.15
2022-09-20T04:16:38.767Z,5.45
2022-09-20T04:19:16.172Z,6.18
2022-09-20T04:21:49.970Z,5.07
2022-09-20T04:24:24.824Z,6.18
2022-09-20T04:26:59.653Z,5.28
2022-09-20T04:29:36.056Z,6.65
2022-09-20T04:32:14.775Z,5.30
2022-09-20T04:35:05.080Z,6.13
2022-09-20T04:37:34.371Z,7.97
2022-09-20T04:40:14.978Z,6.07
2022-09-20T04:43:12.397Z,5.32
2022-09-20T04:46:18.712Z,7.40
2022-09-20T04:49:20.430Z,6.43
2022-09-20T04:52:34.338Z,7.30
2022-09-20T04:55:25.769Z,6.82
2022-09-20T04:58:28.064Z,5.83
2022-09-20T05:01:31.613Z,9.10
2022-09-20T05:04:22.639Z,10.25
2022-09-20T05:07:18.313Z,8.00
2022-09-20T05:10:03.716Z,6.95
2022-09-20T05:12:49.120Z,5.22
2022-09-20T05:15:39.000Z,6.28
2022-09-20T05:18:44.761Z,6.25
2022-09-20T05:21:35.308Z,6.75
2022-09-20T05:24:19.155Z,6.57
2022-09-20T05:27:01.198Z,5.28
2022-09-20T05:29:35.081Z,7.68
2022-09-20T05:32:11.037Z,7.05
2022-09-20T05:34:47.160Z,8.40
2022-09-20T05:37:25.266Z,4.68
2022-09-20T05:40:02.603Z,5.38
2022-09-20T05:42:40.631Z,5.55
2022-09-20T05:45:23.479Z,5.45
2022-09-20T05:47:58.971Z,7.43
2022-09-20T05:50:40.147Z,5.88
2022-09-20T05:53:30.558Z,4.88
2022-09-20T05:56:09.943Z,5.82
2022-09-20T05:58:58.030Z,7.18
2022-09-20T06:01:31.135Z,7.90
2022-09-20T06:04:13.619Z,5.40
2022-09-20T06:06:57.246Z,7.13
2022-09-20T06:09:52.297Z,6.53
2022-09-20T06:12:35.683Z,5.88
2022-09-20T06:15:19.583Z,6.78
2022-09-20T06:17:57.971Z,5.60
2022-09-20T06:20:33.796Z,6.85
2022-09-20T06:23:04.635Z,6.32
2022-09-20T06:25:39.190Z,5.38
2022-09-20T06:28:14.254Z,6.72
2022-09-20T06:30:45.691Z,6.38
2022-09-20T06:33:17.544Z,8.98
2022-09-20T06:35:54.744Z,7.00
2022-09-20T06:38:56.805Z,7.93
2022-09-20T06:41:30.497Z,6.60
2022-09-20T06:44:01.046Z,5.53
2022-09-20T06:46:29.851Z,5.75
2022-09-20T06:48:58.103Z,6.72
2022-09-20T06:51:29.179Z,9.52
2022-09-20T06:53:58.166Z,7.47
2022-09-20T06:56:28.834Z,7.47
2022-09-20T06:58:56.469Z,7.05
2022-09-20T07:01:30.029Z,8.80
2022-09-20T07:03:58.059Z,7.72
2022-09-20T07:06:27.255Z,6.50
2022-09-20T07:08:54.846Z,4.90
2022-09-20T07:11:23.346Z,7.38
2022-09-20T07:13:53.757Z,7.90
2022-09-20T07:16:21.975Z,6.68
2022-09-20T07:18:52.211Z,6.07
2022-09-20T07:21:21.491Z,6.82
2022-09-20T07:23:51.116Z,6.30
2022-09-20T07:26:21.275Z,5.68
2022-09-20T07:28:50.250Z,6.00
2022-09-20T07:31:18.942Z,7.75
2022-09-20T07:33:46.625Z,5.20
2022-09-20T07:36:14.383Z,6.03
2022-09-20T07:38:43.131Z,5.50
2022-09-20T07:41:12.022Z,4.93
2022-09-20T07:43:39.729Z,7.25
2022-09-20T07:46:07.360Z,5.63
2022-09-20T07:48:36.714Z,7.75
2022-09-20T07:51:08.943Z,5.45
2022-09-20T07:53:37.192Z,7.40
2022-09-20T07:56:06.884Z,6.90
2022-09-20T07:58:36.965Z,4.28
2022-09-20T08:01:07.134Z,6.40
2022-09-20T08:03:35.859Z,4.30
2022-09-20T08:06:05.757Z,5.10
2022-09-20T08:08:33.969Z,4.80
2022-09-20T08:11:06.711Z,9.50
2022-09-20T08:16:26.829Z,5.00
2022-09-20T08:18:57.070Z,4.60
2022-09-20T08:21:25.822Z,5.57
2022-09-20T08:23:53.771Z,4.43
2022-09-20T08:26:24.588Z,5.25
2022-09-20T08:28:55.423Z,5.53
2022-09-20T08:31:24.603Z,4.63
2022-09-20T08:33:54.367Z,6.20
2022-09-20T08:36:24.347Z,5.68
2022-09-20T08:41:44.755Z,5.63
2022-09-20T08:44:18.218Z,5.38
2022-09-20T08:46:50.879Z,6.07
2022-09-20T08:49:26.693Z,9.07
2022-09-20T08:51:57.911Z,5.28
2022-09-20T08:54:32.160Z,4.70
2022-09-20T08:57:05.142Z,3.03
2022-09-20T08:59:34.745Z,5.18
2022-09-20T09:02:02.347Z,5.22
2022-09-20T09:04:36.215Z,4.10
2022-09-20T09:07:04.255Z,4.40
2022-09-20T09:09:37.544Z,5.35
2022-09-20T09:12:06.860Z,6.18
2022-09-20T09:14:59.296Z,6.68
2022-09-20T09:17:29.201Z,6.00
2022-09-20T09:19:57.870Z,4.93
2022-09-20T09:22:32.147Z,5.40
2022-09-20T09:25:32.154Z,7.47
2022-09-20T09:28:01.861Z,4.97
2022-09-20T09:30:32.807Z,5.45
2022-09-20T09:33:18.279Z,4.60
2022-09-20T09:35:53.976Z,3.47
2022-09-20T09:38:24.604Z,5.28
2022-09-20T09:40:53.770Z,5.38
2022-09-20T09:43:26.969Z,5.07
2022-09-20T09:45:57.144Z,5.53
2022-09-20T09:48:27.575Z,4.80
2022-09-20T09:51:10.680Z,3.58
2022-09-20T09:53:40.143Z,8.77
2022-09-20T09:56:26.850Z,3.22
2022-09-20T09:59:19.771Z,4.50
2022-09-20T10:01:58.057Z,3.33
2022-09-20T10:04:34.145Z,6.28
2022-09-20T10:07:10.517Z,3.20
2022-09-20T10:09:56.575Z,3.92
2022-09-20T10:12:38.559Z,4.57
2022-09-20T10:15:22.980Z,4.70
2022-09-20T10:18:02.851Z,3.47
2022-09-20T10:20:42.683Z,4.00
2022-09-20T10:24:02.138Z,6.70
2022-09-20T10:26:25.484Z,2.67
2022-09-20T10:29:03.997Z,5.07
2022-09-20T10:31:42.488Z,5.55
2022-09-20T10:34:43.508Z,3.47
2022-09-20T10:37:21.493Z,4.40
2022-09-20T10:40:00.269Z,3.55
2022-09-20T10:42:56.503Z,4.28
2022-09-20T10:46:03.832Z,4.88
2022-09-20T10:48:29.324Z,3.38
2022-09-20T10:51:05.026Z,3.80
2022-09-20T10:53:43.231Z,5.20
2022-09-20T10:56:24.218Z,4.40
2022-09-20T10:59:30.241Z,4.05
2022-09-20T11:02:14.856Z,5.63
2022-09-20T11:05:04.715Z,3.92
2022-09-20T11:07:46.834Z,6.18
2022-09-20T11:12:51.904Z,5.72
2022-09-20T11:15:25.371Z,3.33
2022-09-20T11:18:02.511Z,5.13
2022-09-20T11:20:35.323Z,4.22
2022-09-20T11:23:11.285Z,3.60
2022-09-20T11:25:44.395Z,4.95
2022-09-20T11:28:18.557Z,3.13
2022-09-20T11:30:57.048Z,4.20
2022-09-20T11:33:29.715Z,4.30
2022-09-20T11:36:01.595Z,3.65
2022-09-20T11:41:06.019Z,7.50
2022-09-20T11:43:35.662Z,4.03
2022-09-20T11:46:08.653Z,4.75
2022-09-20T11:48:43.708Z,3.72
2022-09-20T11:51:31.312Z,4.20
2022-09-20T11:54:21.343Z,4.75
2022-09-20T11:56:52.242Z,3.35
2022-09-20T11:59:34.284Z,3.28
2022-09-20T12:04:36.866Z,3.72
2022-09-20T12:07:11.521Z,2.60
2022-09-20T12:09:45.376Z,3.33
2022-09-20T12:14:55.888Z,2.38
2022-09-20T12:18:09.067Z,2.20
2022-09-20T12:21:04.144Z,4.00
2022-09-20T12:23:59.402Z,3.45
2022-09-20T12:26:41.007Z,2.85
2022-09-20T12:29:54.104Z,3.40
2022-09-20T12:32:56.368Z,2.50
2022-09-20T12:36:17.738Z,3.78
2022-09-20T12:39:06.344Z,3.28
2022-09-20T12:41:51.443Z,4.05
2022-09-20T12:44:32.952Z,3.95
2022-09-20T12:47:02.902Z,4.72
2022-09-20T12:50:09.162Z,2.30
2022-09-20T12:53:00.506Z,4.05
2022-09-20T12:55:52.760Z,2.63
2022-09-20T13:01:14.573Z,5.03
2022-09-20T13:03:45.078Z,2.97
2022-09-20T13:06:26.627Z,5.13
2022-09-20T13:09:03.652Z,4.13
2022-09-20T13:11:37.302Z,2.42
2022-09-20T13:14:11.661Z,5.90
2022-09-20T13:16:48.378Z,3.65
2022-09-20T13:19:19.293Z,3.17
2022-09-20T13:21:54.915Z,4.13
2022-09-20T13:24:25.770Z,3.88
2022-09-20T13:26:56.748Z,4.68
2022-09-20T13:29:30.033Z,3.58
2022-09-20T13:31:58.348Z,3.45
2022-09-20T13:34:27.454Z,3.20
2022-09-20T13:36:59.376Z,2.88
2022-09-20T13:42:03.049Z,3.60
2022-09-20T13:44:34.284Z,4.47
2022-09-20T13:47:02.335Z,3.13
2022-09-20T13:49:33.438Z,6.57
2022-09-20T13:52:21.227Z,3.10
2022-09-20T13:54:48.849Z,2.38
2022-09-20T13:57:22.482Z,3.75
2022-09-20T13:59:52.508Z,5.20
2022-09-20T14:02:24.106Z,3.20
2022-09-20T14:04:56.674Z,2.53
2022-09-20T14:07:27.970Z,3.08
2022-09-20T14:09:56.568Z,3.45
2022-09-20T14:12:25.989Z,2.70
2022-09-20T14:14:54.747Z,2.88
2022-09-20T14:17:25.086Z,1.42
2022-09-20T14:19:56.519Z,2.85
2022-09-20T14:22:27.041Z,3.85
2022-09-20T14:25:02.742Z,3.30
2022-09-20T14:27:31.364Z,1.65
2022-09-20T14:29:59.801Z,2.95
2022-09-20T14:32:48.205Z,2.78
2022-09-20T14:35:20.243Z,2.05
2022-09-20T14:37:50.393Z,3.65
2022-09-20T14:40:22.788Z,3.58
2022-09-20T14:42:54.317Z,3.53
2022-09-20T14:45:25.529Z,2.70
2022-09-20T14:47:57.594Z,4.10
2022-09-20T14:50:30.032Z,2.60
2022-09-20T14:53:03.266Z,3.78
2022-09-20T14:55:37.120Z,5.15
2022-09-20T14:58:10.486Z,3.97
2022-09-20T15:00:50.405Z,3.97
2022-09-20T15:03:25.505Z,3.92
2022-09-20T15:05:54.979Z,2.78
2022-09-20T15:08:23.264Z,2.90
2022-09-20T15:10:51.476Z,2.97
2022-09-20T15:13:19.272Z,2.83
2022-09-20T15:15:50.988Z,3.38
2022-09-20T15:20:51.302Z,3.58
2022-09-20T15:23:20.456Z,4.85
2022-09-20T15:25:51.311Z,3.33
2022-09-20T15:28:19.570Z,4.25
2022-09-20T15:30:48.192Z,3.45
2022-09-20T15:33:15.899Z,4.93
2022-09-20T15:35:44.768Z,2.13
2022-09-20T15:38:13.095Z,2.05
2022-09-20T15:40:42.951Z,2.55
2022-09-20T15:43:16.183Z,2.83
2022-09-20T15:45:50.417Z,2.67
2022-09-20T15:48:20.733Z,2.92
2022-09-20T15:51:02.141Z,4.07
2022-09-20T15:53:33.405Z,3.58
2022-09-20T15:56:03.908Z,2.40
2022-09-20T15:58:36.307Z,2.67
2022-09-20T16:01:06.364Z,2.63
2022-09-20T16:03:35.187Z,2.20
2022-09-20T16:06:04.973Z,2.50
2022-09-20T16:08:33.722Z,3.38
2022-09-20T16:11:03.646Z,2.83
2022-09-20T16:13:31.376Z,3.47
2022-09-20T16:16:00.756Z,2.83
2022-09-20T16:18:46.680Z,3.13
2022-09-20T16:21:16.151Z,2.88
2022-09-20T16:23:48.543Z,3.60
2022-09-20T16:26:17.962Z,4.43
2022-09-20T16:28:47.715Z,4.18
2022-09-20T16:31:39.811Z,2.58
2022-09-20T16:34:12.651Z,5.10
2022-09-20T16:36:42.256Z,4.25
2022-09-20T16:39:10.452Z,3.42
2022-09-20T16:41:40.504Z,3.33
2022-09-20T16:44:08.743Z,4.13
2022-09-20T16:46:37.263Z,3.17
2022-09-20T16:49:07.289Z,2.47
2022-09-20T16:51:37.659Z,2.53
2022-09-20T16:54:07.355Z,2.20
2022-09-20T16:56:36.281Z,5.35
2022-09-20T16:59:07.320Z,3.70
2022-09-20T17:01:36.762Z,2.85
2022-09-20T17:04:05.648Z,4.63
2022-09-20T17:06:35.172Z,5.60
2022-09-20T17:09:03.752Z,2.58
2022-09-20T17:11:35.829Z,3.00
2022-09-20T17:14:06.367Z,3.60
2022-09-20T17:16:36.319Z,2.47
2022-09-20T17:19:07.174Z,3.25
2022-09-20T17:21:36.904Z,2.40
2022-09-20T17:24:06.794Z,3.45
2022-09-20T17:26:37.478Z,3.88
2022-09-20T17:29:09.860Z,3.88
2022-09-20T17:31:39.054Z,2.60
2022-09-20T17:34:08.460Z,2.70
2022-09-20T17:36:39.130Z,2.88
2022-09-20T17:39:09.924Z,2.95
2022-09-20T17:41:38.354Z,3.23
2022-09-20T17:44:09.887Z,2.58
2022-09-20T17:46:39.365Z,3.75
2022-09-20T17:49:08.601Z,2.95
2022-09-20T17:51:38.032Z,2.65
2022-09-20T17:54:06.194Z,3.90
2022-09-20T17:56:35.384Z,3.00
2022-09-20T17:59:04.434Z,2.80
2022-09-20T18:01:35.532Z,3.08
2022-09-20T18:04:04.270Z,3.60
2022-09-20T18:06:35.262Z,3.50
2022-09-20T18:09:05.657Z,3.67
2022-09-20T18:11:35.666Z,4.68
2022-09-20T18:14:04.743Z,2.20
2022-09-20T18:16:35.028Z,2.53
2022-09-20T18:19:03.055Z,3.60
2022-09-20T18:21:33.388Z,2.60
2022-09-20T18:24:00.942Z,3.67
2022-09-20T18:26:30.280Z,4.10
2022-09-20T18:29:00.149Z,3.67
2022-09-20T18:31:32.128Z,2.80
2022-09-20T18:34:01.602Z,2.97
2022-09-20T18:36:30.808Z,2.33
2022-09-20T18:38:59.309Z,2.92
2022-09-20T18:41:28.848Z,4.75
2022-09-20T18:43:57.020Z,3.38
2022-09-20T18:46:26.956Z,5.22
2022-09-20T18:48:56.911Z,4.75
2022-09-20T18:51:28.677Z,4.82
2022-09-20T18:53:56.934Z,5.03
2022-09-20T18:56:26.829Z,5.05
2022-09-20T18:58:56.536Z,5.20
2022-09-20T19:02:09.510Z,7.00
2022-09-20T19:05:11.845Z,4.07
2022-09-20T19:07:52.134Z,3.78
2022-09-20T19:10:27.500Z,4.20
2022-09-20T19:13:00.663Z,5.70
2022-09-20T19:15:47.735Z,4.05
2022-09-20T19:18:33.227Z,3.90
2022-09-20T19:21:09.995Z,3.38
2022-09-20T19:23:51.186Z,5.22
2022-09-20T19:26:22.570Z,2.95
2022-09-20T19:28:51.160Z,3.47
2022-09-20T19:31:24.516Z,4.55
2022-09-20T19:33:54.866Z,3.63
2022-09-20T19:36:23.414Z,3.28
2022-09-20T19:39:02.355Z,3.50
2022-09-20T19:41:41.830Z,4.05
2022-09-20T19:44:32.285Z,4.35
2022-09-20T19:47:18.124Z,4.00
2022-09-20T19:49:54.114Z,3.80
2022-09-20T19:52:22.823Z,4.85
2022-09-20T19:54:52.674Z,5.85
2022-09-20T19:57:22.539Z,5.93
2022-09-20T19:59:51.876Z,4.30
2022-09-20T20:02:19.910Z,4.25
2022-09-20T20:04:47.876Z,3.95
2022-09-20T20:07:27.717Z,4.00
2022-09-20T20:10:04.925Z,4.60
2022-09-20T20:12:40.800Z,4.65
2022-09-20T20:15:21.422Z,4.65
2022-09-20T20:17:58.909Z,3.85
2022-09-20T20:20:34.867Z,4.32
2022-09-20T20:23:32.324Z,5.38
2022-09-20T20:26:06.720Z,4.60
2022-09-20T20:28:34.455Z,3.58
2022-09-20T20:31:03.069Z,3.45
2022-09-20T20:33:31.841Z,4.75
2022-09-20T20:36:01.611Z,3.95
2022-09-20T20:38:37.238Z,4.15
2022-09-20T20:41:08.539Z,4.68
2022-09-20T20:43:37.386Z,4.43
2022-09-20T20:46:07.054Z,4.75
2022-09-20T20:48:36.183Z,4.18
2022-09-20T20:51:05.989Z,5.60
2022-09-20T20:53:35.821Z,6.15
2022-09-20T20:56:07.271Z,6.88
2022-09-20T20:58:36.344Z,6.03
2022-09-20T21:01:12.389Z,5.07
2022-09-20T21:03:41.293Z,4.70
2022-09-20T21:06:10.086Z,4.68
2022-09-20T21:08:39.623Z,3.05
2022-09-20T21:11:11.687Z,3.65
2022-09-20T21:13:39.819Z,3.35
2022-09-20T21:16:09.956Z,3.90
2022-09-20T21:18:38.490Z,4.82
2022-09-20T21:21:14.833Z,4.47
2022-09-20T21:23:43.258Z,6.65
2022-09-20T21:26:15.361Z,4.30
2022-09-20T21:28:44.982Z,4.10
2022-09-20T21:31:14.138Z,3.58
2022-09-20T21:33:43.236Z,4.60
2022-09-20T21:36:13.157Z,4.20
2022-09-20T21:38:41.915Z,4.43
2022-09-20T21:41:12.703Z,5.22
2022-09-20T21:43:42.699Z,3.97
2022-09-20T21:46:14.400Z,4.00
2022-09-20T21:48:42.266Z,6.03
2022-09-20T21:51:11.514Z,5.88
2022-09-20T21:53:40.006Z,4.43
2022-09-20T21:56:09.386Z,6.65
2022-09-20T21:58:39.840Z,4.05
2022-09-20T22:01:09.947Z,4.88
2022-09-20T22:03:39.380Z,4.72
2022-09-20T22:06:12.900Z,4.00
2022-09-20T22:08:42.629Z,3.75
2022-09-20T22:11:14.785Z,5.03
2022-09-20T22:13:46.047Z,4.82
2022-09-20T22:16:15.496Z,4.30
2022-09-20T22:18:44.354Z,4.03
2022-09-20T22:21:13.962Z,4.65
2022-09-20T22:23:42.153Z,3.70
2022-09-20T22:26:11.542Z,4.60
2022-09-20T22:28:39.520Z,4.13
2022-09-20T22:31:10.524Z,6.75
2022-09-20T22:33:42.574Z,5.43
2022-09-20T22:38:38.216Z,3.95
2022-09-20T22:41:06.044Z,5.22
2022-09-20T22:43:34.847Z,4.95
2022-09-20T22:46:03.309Z,4.68
2022-09-20T22:48:32.975Z,5.35
2022-09-20T22:51:02.011Z,5.38
2022-09-20T22:53:31.077Z,5.40
2022-09-20T22:56:06.806Z,3.97
2022-09-20T22:58:35.906Z,4.03
2022-09-20T23:01:09.437Z,3.67
2022-09-20T23:03:39.759Z,4.80
2022-09-20T23:06:13.198Z,4.10
2022-09-20T23:08:40.968Z,4.25
2022-09-20T23:11:09.173Z,3.22
2022-09-20T23:13:36.857Z,4.63
2022-09-20T23:16:11.941Z,5.30
2022-09-20T23:18:41.148Z,3.42
2022-09-20T23:21:09.298Z,4.53
2022-09-20T23:23:37.414Z,4.20
2022-09-20T23:26:08.406Z,5.18
2022-09-20T23:28:36.881Z,4.85
2022-09-20T23:31:06.833Z,4.63
2022-09-20T23:33:34.988Z,5.28
2022-09-20T23:36:08.235Z,3.97
2022-09-20T23:38:36.370Z,4.32
2022-09-20T23:41:05.056Z,4.30
2022-09-20T23:43:33.098Z,3.95
2022-09-20T23:46:01.117Z,4.13
2022-09-20T23:48:29.394Z,4.70
2022-09-20T23:50:57.579Z,3.47
2022-09-20T23:53:26.556Z,4.85
2022-09-20T23:55:54.212Z,4.07
2022-09-20T23:58:21.890Z,3.28
